Weather observations for the past three days for
Galesburg Municipal Airport
Imperial (Metric)
Date Time (cdt) Wind (mph) Vis. (mi.) Weather Sky Cond. Temperature (ºF) Relative Humidity Wind Chill (°F) Heat Index (°F) Pressure Precipitation (in)
Air Dwpt 6 hour altimeter (in) sea level (mb) 1 hr 3 hr 6 hr
Max. Min.
07 01:55 S 3 10.00 Fair CLR 38.3 32 78% 30.03 0.0
07 01:35 S 3 10.00 Fair CLR 36.7 34 90% 30.03 0.0
07 01:15 Calm 10.00 Fair CLR 36.1 33.8 91% 30.03 0.0
07 00:55 Calm 10.00 Fair CLR 36.1 33.3 52.5 36.1 89% 30.04 0.0
07 00:35 Calm 10.00 Fair CLR 36.1 33.3 89% 30.04 0.0
07 00:15 Calm 10.00 Fair CLR 36.5 32.4 85% 30.04 0.0
06 23:55 Calm 10.00 Fair CLR 37.4 33.3 85% 30.04 0.0
06 23:35 Calm 10.00 Fair CLR 36.9 33.6 88% 30.03 0.0
06 23:15 Calm 10.00 Fair CLR 37.4 33.4 86% 30.04 0.0
06 22:55 Calm 10.00 Fair CLR 38.5 32.7 80% 30.04 0.0
06 22:15 Calm 10.00 Fair CLR 39.4 32.9 78% 30.04 0.0
06 21:55 Calm 10.00 Fair CLR 39.2 33.3 79% 30.04 0.0
06 21:35 Calm 10.00 Fair CLR 41.2 32 70% 30.04 0.0
06 21:15 Calm 10.00 Fair CLR 43 31.5 64% 30.03 0.0
06 20:55 Calm 10.00 Fair CLR 44.1 31.3 61% 30.02 0.0
06 20:35 Calm 10.00 Fair CLR 46.2 30.2 54% 30.02 0.0
06 20:15 NW 3 10.00 Fair CLR 48.7 27.9 44% 30.01 0.0
06 19:55 NW 3 10.00 Fair CLR 49.3 27.7 43% 30.01 0.0
06 19:35 NW 3 10.00 Partly Cloudy SCT070 50.7 27.5 41% 30.01 0.0
06 19:15 NW 8 10.00 Mostly Cloudy BKN070 51.8 26.6 38% 30.01 0.0
06 18:55 W 16 G 21 10.00 Partly Cloudy SCT080 52.7 25.5 57.2 52.7 35% 30.01 0.0
06 18:35 NW 12 G 18 10.00 Partly Cloudy SCT080 53.4 24.6 33% 30.02 0.0
06 17:55 NW 9 10.00 Mostly Cloudy BKN070 53.4 25.9 34% 30.02 0.0
06 17:35 NW 13 G 18 10.00 Mostly Cloudy BKN070 53.6 26.1 34% 30.02 0.0
06 17:15 NW 14 G 22 10.00 Partly Cloudy SCT070 54.7 25.7 33% 30.01 0.0
06 16:35 W 17 10.00 Mostly Cloudy BKN070 55.4 27.1 34% 30 0.0
06 16:15 W 17 G 24 10.00 Mostly Cloudy BKN070 55.9 26.8 33% 30.01 0.0
06 15:55 W 16 G 23 10.00 Mostly Cloudy BKN070 56.1 28 34% 30.01 0.0
06 15:35 W 13 G 20 10.00 Overcast OVC070 55.8 28.2 35% 30.02 0.0
06 15:15 NW 13 G 23 10.00 Mostly Cloudy BKN070 55.4 29.1 37% 30.02 0.0
06 14:55 W 14 G 24 10.00 Mostly Cloudy BKN070 55.6 28.6 36% 30.03 0.0
06 14:35 NW 14 G 26 10.00 Partly Cloudy SCT070 54.9 27.9 35% 30.03 0.0
06 14:15 NW 14 G 22 10.00 Fair CLR 53.6 26.2 35% 30.03 0.0
06 13:55 W 18 G 24 10.00 Partly Cloudy SCT065 54 26.6 35% 30.03 0.0
06 13:35 NW 13 G 17 10.00 Partly Cloudy SCT065 55 27.1 34% 30.03 0.0
06 13:15 NW 12 G 22 10.00 Partly Cloudy SCT065 55.6 29.3 37% 30.03 0.0
06 12:55 W 16 G 23 10.00 Partly Cloudy SCT065 53.8 28 55.2 41 37% 30.03 0.0
06 12:35 NW 10 10.00 Partly Cloudy SCT065 54 27.5 36% 30.03 0.0
06 12:15 NW 13 G 22 10.00 Fair CLR 53.8 29.7 40% 30.03 0.0
06 11:55 NW 10 10.00 Fair CLR 53.1 29.3 40% 30.03 0.0
06 11:35 NW 12 G 21 10.00 Fair CLR 52.7 29.7 41% 30.03 0.0
06 11:15 NW 9 G 17 10.00 Fair CLR 52.2 29.5 42% 30.03 0.0
06 10:55 NW 13 10.00 Fair CLR 51.1 30.7 46% 30.03 0.0
06 10:35 NW 13 10.00 Fair CLR 49.8 30.2 47% 45 30.03 0.0
06 10:15 NW 8 10.00 Fair CLR 49.3 31.8 51% 46 30.02 0.0
06 09:55 NW 10 10.00 Fair CLR 50 32.9 52% 46 30.02 0.0
06 09:35 N 14 10.00 Fair CLR 47.8 32 54% 43 30.01 0.0
06 09:15 NW 10 10.00 Fair CLR 46.6 33.4 60% 42 30.01 0.0
06 08:55 NW 7 10.00 Fair CLR 45.1 33.6 64% 42 30.01 0.0
06 08:35 NW 6 10.00 Fair CLR 44.2 34.3 68% 41 30.01 0.0
06 08:15 NW 5 10.00 Fair CLR 43.3 34.2 70% 41 30.01 0.0
06 07:55 NW 6 10.00 Fair CLR 43 33.8 70% 40 30.01 0.0
06 07:35 NW 6 10.00 Fair CLR 42.4 34.5 74% 39 29.99 0.0
06 06:55 W 5 10.00 Fair CLR 41 35.4 43.7 38.3 81% 38 29.97 0.0
06 06:35 W 3 10.00 Fair CLR 39.6 35.2 85% 29.96 0.0
06 06:15 Calm 10.00 Fair CLR 40.1 33.4 77% 29.94 0.0
06 05:55 NW 3 10.00 Fair CLR 38.7 33.8 83% 29.93 0.0
06 05:35 Calm 10.00 Fair CLR 39.2 33.8 81% 29.92 0.0
06 05:15 NW 5 10.00 Fair CLR 40.1 32.9 76% 37 29.93 0.0
06 04:55 NW 3 10.00 Fair CLR 39.2 34 82% 29.93 0.0
06 04:35 Calm 10.00 Fair CLR 39.6 33.8 80% 29.93 0.0
06 04:15 Calm 10.00 Fair CLR 41.2 34 76% 29.92 0.0
06 03:55 N 5 10.00 Fair CLR 40.6 34.9 80% 38 29.92 0.0
06 03:35 N 5 10.00 Fair CLR 42.3 34.9 75% 40 29.91 0.0
06 03:15 N 5 10.00 Fair CLR 43.3 33.6 69% 41 29.92 0.0
06 02:55 N 7 10.00 Fair CLR 43.5 33.6 68% 40 29.9 0.0
06 02:35 N 8 10.00 Fair CLR 43.5 34.2 70% 39 29.9 0.0
06 02:15 N 6 10.00 Fair CLR 42.3 34.9 75% 39 29.91 0.0
06 01:55 N 7 10.00 Fair CLR 41.9 34.9 76% 38 29.9 0.0
06 01:35 N 9 10.00 Fair CLR 43.5 34.3 70% 39 29.9 0.0
06 01:15 N 8 10.00 Fair CLR 42.8 36 77% 39 29.89 0.0
06 00:55 N 8 10.00 Fair CLR 43.2 36 52.7 43.2 76% 39 29.88 0.0
06 00:35 NW 5 10.00 Fair CLR 44.2 36.1 73% 42 29.87 0.0
06 00:15 NW 6 10.00 Fair CLR 44.4 36 72% 42 29.87 0.0
05 23:55 Calm 10.00 Fair CLR 45.5 35.6 68% 29.86 0.0
05 23:35 SW 3 10.00 Fair CLR 45.9 36.5 70% 29.85 0.0
05 23:15 SW 3 10.00 Fair CLR 46.8 35.8 66% 29.86 0.0
05 22:55 SW 3 10.00 Fair CLR 47.3 36 65% 29.86 0.0
05 22:35 SW 5 10.00 Partly Cloudy SCT120 46.9 36.7 68% 45 29.87 0.0
05 22:15 SW 5 10.00 Partly Cloudy SCT120 47.7 37.4 68% 46 29.87 0.0
05 21:55 SW 3 10.00 Partly Cloudy SCT120 49.1 36.7 62% 29.86 0.0
05 21:35 SW 5 10.00 Mostly Cloudy BKN120 49.6 36.3 60% 48 29.86 0.0
05 21:15 SW 5 10.00 Overcast OVC120 48.7 36.9 64% 47 29.85 0.0
05 20:55 SW 3 10.00 Mostly Cloudy BKN120 49.1 37.6 65% 29.85 0.0
05 20:35 Calm 10.00 Partly Cloudy SCT120 50.2 36.1 59% 29.84 0.0
05 20:15 Calm 10.00 Overcast OVC120 50.7 36.1 58% 29.84 0.0
05 19:55 Calm 10.00 Overcast OVC110 51.1 37 59% 29.84 0.0
05 19:35 W 5 10.00 Overcast OVC100 51.6 39.7 64% 29.83 0.0
05 19:15 W 5 10.00 Overcast OVC100 52 40.1 64% 29.83 0.0
05 18:55 W 3 10.00 Overcast OVC100 52.7 36.5 54.7 52.3 54% 29.83 0.0
05 18:35 NW 6 10.00 Overcast OVC100 53.2 34.9 50% 29.83 0.0
05 18:15 NW 3 10.00 Mostly Cloudy BKN100 53.2 33.6 47% 29.83 0.0
05 17:55 NW 5 10.00 Mostly Cloudy BKN100 53.6 35.1 50% 29.83 0.0
05 17:35 NW 7 10.00 Mostly Cloudy BKN100 53.8 32.2 44% 29.83 0.0
05 17:15 NW 7 10.00 Overcast OVC100 54 33.3 46% 29.84 0.0
05 16:55 W 8 10.00 Overcast OVC100 53.8 34.2 48% 29.84 0.0
05 16:35 NW 5 10.00 Mostly Cloudy BKN100 53.6 33.3 46% 29.84 0.0
05 16:15 W 9 10.00 Partly Cloudy SCT100 53.8 34.5 48% 29.85 0.0
05 15:55 NW 7 10.00 Fair CLR 54.1 34.5 48% 29.84 0.0
05 15:35 N 8 10.00 Fair CLR 54.7 33.8 45% 29.84 0.0
05 15:15 W 6 G 9 10.00 Fair CLR 53.6 32.7 45% 29.86 0.0
05 14:55 NW 6 10.00 Fair CLR 54.5 33.1 44% 29.87 0.0
05 14:35 W 8 10.00 Fair CLR 52.9 32.7 46% 29.87 0.0
05 14:15 NW 7 10.00 Fair CLR 53.1 33.1 47% 29.88 0.0
05 13:55 NW 9 10.00 Fair CLR 52.7 32.5 46% 29.88 0.0
05 13:35 W 9 10.00 Partly Cloudy SCT120 52.7 33.3 48% 29.88 0.0
05 13:15 NW 9 10.00 Partly Cloudy SCT110 52.7 32.9 47% 29.88 0.0
05 12:55 NW 5 10.00 Partly Cloudy SCT110 52.3 31.6 53.8 43.9 45% 29.88 0.0
05 12:35 NW 6 10.00 Fair CLR 52.7 32 45% 29.88 0.0
05 11:55 NW 9 10.00 Fair CLR 52.9 32.2 45% 29.87 0.0
05 11:35 N 8 10.00 Fair CLR 53.2 33.4 47% 29.87 0.0
05 11:15 NW 5 10.00 Partly Cloudy SCT095 52.9 33.8 48% 29.87 0.0
05 10:55 NW 8 10.00 Mostly Cloudy BKN095 52.3 34.3 51% 29.87 0.0
05 10:35 N 12 10.00 Partly Cloudy SCT095 52 35.6 54% 29.85 0.0
05 10:18 NW 7 10.00 Partly Cloudy SCT095 51.8 37.4 58% 29.84 0.0
05 10:02 N 9 10.00 Overcast OVC095 50 37.4 62% 47 29.83 0.0
05 09:30 N 5 10.00 Overcast OVC095 48 36.3 64% 47 29.84 0.0
05 09:15 N 6 10.00 Mostly Cloudy BKN095 47.7 35.8 64% 45 29.83 0.0
05 08:55 N 6 10.00 Partly Cloudy SCT085 SCT110 46.6 36.5 68% 44 29.83 0.0
05 08:35 N 6 10.00 Mostly Cloudy SCT090 BKN110 45.9 37 71% 43 29.83 0.0
05 08:15 N 6 10.00 Mostly Cloudy BKN090 BKN120 45.1 37.6 75% 43 29.84 0.0
05 07:55 NW 5 10.00 Light Drizzle SCT039 SCT060 BKN100 44.6 37.9 78% 43 29.86 0.0
05 07:35 W 3 10.00 Light Rain SCT039 SCT060 OVC090 44.1 37.6 78% 29.87 0.0
05 07:15 NW 5 10.00 Rain SCT070 OVC080 44.4 38.1 79% 42 29.87 0.0
05 06:55 W 6 10.00 Light Drizzle SCT070 OVC080 44.6 39 51.8 44.6 81% 42 29.88 0.0
05 06:35 NW 7 10.00 Light Rain OVC080 45 37.6 75% 42 29.86 0.0
05 06:15 NW 8 10.00 Light Rain OVC080 45.7 36.7 71% 42 29.84 0.0
05 05:55 NW 10 10.00 Light Rain OVC090 47.3 36 65% 43 29.82 0.0
05 05:35 W 6 10.00 Light Rain OVC090 47.1 38.8 73% 45 29.82 0.0
05 05:15 W 5 10.00 Overcast OVC090 47.8 37.6 68% 46 29.82 0.0
05 04:55 NW 7 10.00 Overcast OVC090 49.1 32.5 53% 47 29.8 0.0
05 04:35 N 7 10.00 Mostly Cloudy BKN090 BKN120 47.8 35.8 63% 45 29.78 0.0
05 04:15 NW 6 10.00 Overcast BKN090 OVC120 49.1 34.5 57% 47 29.8 0.0
05 03:55 NW 5 10.00 Overcast BKN090 OVC110 49.1 35.6 60% 48 29.79 0.0
05 03:35 NW 8 10.00 Overcast OVC100 49.3 36 60% 46 29.77 0.0
05 03:15 N 12 10.00 Overcast OVC090 50 35.6 58% 46 29.74 0.0
05 02:55 NW 9 10.00 Overcast OVC090 49.6 37.8 64% 46 29.76 0.0
05 02:35 NW 10 10.00 Mostly Cloudy BKN090 50.4 36.5 59% 29.75 0.0
05 02:15 NW 12 G 18 10.00 Partly Cloudy SCT090 50.9 35.8 56% 29.73 0.0
05 01:55 NW 14 10.00 Fair CLR 51.4 35.8 55% 29.73 0.0
05 01:35 NW 8 10.00 Fair CLR 51.3 36.7 58% 29.71 0.0
05 01:15 NW 6 10.00 Fair CLR 51.1 37.6 60% 29.71 0.0
05 00:55 NW 8 10.00 Fair CLR 51.4 37.6 61.7 51.4 59% 29.7 0.0 0.43
05 00:35 NW 5 10.00 Fair CLR 52.7 37.6 57% 29.7 0.0
05 00:15 NW 7 10.00 Fair CLR 52.9 38.3 58% 29.67 0.0
04 23:55 NW 6 10.00 Fair CLR 54.3 37.9 54% 29.67 0.0
04 23:35 N 10 10.00 Fair CLR 55 38.3 53% 29.64 0.0
04 23:15 N 12 10.00 Fair CLR 55.8 41.2 58% 29.63 0.0
04 22:55 NW 12 10.00 Fair CLR 56.7 43.3 61% 29.64 0.0
04 22:35 NW 12 G 16 10.00 Fair CLR 57.6 45.3 64% 29.63 0.0
04 22:15 NW 12 10.00 Fair CLR 58.1 49.6 74% 29.63 0.0
04 21:55 NW 9 10.00 Fair CLR 59.4 50.7 73% 29.62 0.0 0.43
04 21:35 W 7 10.00 Fair CLR 59.5 52.7 78% 29.61 0.0
04 21:15 SW 7 10.00 Partly Cloudy SCT080 59.7 52.3 77% 29.6 0.0
04 20:55 SW 6 10.00 Mostly Cloudy BKN090 BKN110 60.4 52.3 75% 29.59 0.0 0.18
04 20:35 SW 6 G 18 7.00 Light Rain SCT031 SCT050 OVC090 60.4 52.9 76% 29.59 0.0 0.18
04 20:15 SW 6 4.00 Heavy Rain SCT033 SCT050 OVC080 59.2 52 77% 29.58 0.0 0.14
04 19:55 Calm 4.00 Rain SCT037 BKN080 OVC110 56.8 51.1 81% 29.57 0.0 0.24
04 19:35 NW 8 G 32 7.00 Heavy Rain SCT070 OVC100 58.6 48.2 68% 29.57 0.0 0.07
04 19:15 Calm 10.00 Overcast SCT037 SCT055 OVC100 60.6 53.2 77% 29.55 0.0
04 18:55 N 6 10.00 Light Rain SCT037 BKN075 OVC100 60.3 52.2 80.4 60.3 75% 29.52 0.0
04 18:35 NW 14 G 29 10.00 Light Rain BKN075 BKN085 OVC110 63.7 50 61% 29.55 0.0
04 18:15 NW 15 G 24 10.00 Partly Cloudy SCT110 74.5 45.3 35% 29.55 0.0
04 17:55 SW 14 G 22 10.00 Fair CLR 75.4 47.7 38% 78 29.52 0.0
04 17:35 SW 17 G 25 10.00 Fair CLR 76.3 46.9 35% 78 29.5 0.0
04 17:15 SW 17 G 26 10.00 Fair CLR 78.1 47.8 35% 78 29.51 0.0
04 16:55 SW 15 G 24 10.00 Fair CLR 79 46.2 32% 79 29.52 0.0
04 16:35 SW 12 G 25 10.00 Partly Cloudy SCT090 79.7 45.7 30% 79 29.52 0.0
04 16:15 SW 18 G 26 10.00 Fair CLR 79 46.6 32% 79 29.53 0.0
04 15:55 SW 17 G 25 10.00 Fair CLR 80.1 46.8 31% 79 29.54 0.0
04 15:35 SW 12 G 16 10.00 Fair CLR 80.4 44.6 28% 79 29.54 0.0
04 15:15 SW 12 G 20 10.00 Fair CLR 79.7 49.8 35% 79 29.55 0.0
04 14:55 SW 14 G 21 10.00 Fair CLR 79.2 48.7 34% 79 29.55 0.0
04 14:35 SW 12 G 18 10.00 Fair CLR 79 51.6 39% 79 29.56 0.0
04 14:15 SW 21 G 25 10.00 Fair and Breezy CLR 77.9 50 38% 79 29.56 0.0
04 13:55 SW 16 G 21 10.00 Fair CLR 77.9 52.3 41% 79 29.56 0.0
04 13:35 S 13 G 21 10.00 Fair CLR 77.4 51.8 41% 78 29.57 0.0
04 13:15 SW 13 G 24 10.00 Fair CLR 76.8 52.7 43% 78 29.58 0.0
04 12:55 SW 16 G 23 10.00 Fair CLR 76.5 51.8 76.5 49.1 42% 78 29.57 0.0
04 12:35 SW 20 G 26 10.00 Fair CLR 76.3 52 43% 78 29.57 0.0
04 12:15 SW 16 G 22 10.00 Fair CLR 75.9 51.1 42% 78 29.58 0.0
04 11:55 SW 14 G 22 10.00 Fair CLR 75.2 50.9 43% 78 29.59 0.0
04 11:35 SW 15 G 23 10.00 Fair CLR 74.8 50.4 42% 29.59 0.0
04 11:15 SW 17 G 22 10.00 Fair CLR 73.8 51.6 46% 29.6 0.0
04 10:55 SW 16 G 25 10.00 Fair CLR 72.9 49.6 44% 29.6 0.0
04 10:35 SW 20 G 26 10.00 Fair CLR 72.7 50 45% 29.6 0.0
04 10:15 SW 15 G 21 10.00 Fair CLR 72 50.2 46% 29.61 0.0
04 09:55 SW 12 10.00 Fair CLR 70.2 52.5 54% 29.62 0.0
04 09:35 S 12 10.00 Fair CLR 67.5 51.8 57% 29.63 0.0
04 09:15 S 9 10.00 Fair CLR 65.3 51.1 60% 29.63 0.0
04 08:55 S 10 10.00 Fair CLR 63.1 50.7 64% 29.64 0.0
04 08:35 S 13 10.00 Fair CLR 61.2 50.4 68% 29.65 0.0
04 08:15 S 9 10.00 Fair CLR 60.6 50.2 69% 29.66 0.0
04 07:55 S 8 10.00 Fair CLR 56.8 48 73% 29.67 0.0
04 07:35 S 7 10.00 Fair CLR 54.3 46.6 75% 29.67 0.0
04 07:15 S 6 10.00 Fair CLR 52.2 45.7 79% 29.67 0.0
04 06:55 S 5 10.00 Fair CLR 48.7 43.7 49.1 42.4 83% 47 29.68 0.0
04 06:35 S 5 10.00 Fair CLR 45.9 41.7 86% 44 29.68 0.0
04 06:15 S 5 10.00 Fair CLR 44.6 40.8 87% 43 29.68 0.0
04 05:55 S 3 10.00 Fair CLR 44.6 40.8 87% 29.68 0.0
04 05:35 SE 3 10.00 Fair CLR 42.8 39.6 88% 29.68 0.0
04 05:15 S 3 10.00 Fair CLR 44.8 40.3 84% 29.69 0.0
04 04:55 S 5 10.00 Fair CLR 46.4 39.9 78% 45 29.7 0.0
04 04:35 S 6 10.00 Fair CLR 42.8 40.1 90% 40 29.7 0.0
04 04:15 Calm 10.00 Fair CLR 43.2 38.8 85% 29.7 0.0
04 03:55 S 5 10.00 Fair CLR 44.1 41.2 90% 42 29.71 0.0
04 03:35 Calm 10.00 Fair CLR 44.1 39.9 85% 29.7 0.0
04 03:15 S 3 10.00 Fair CLR 47.3 40.8 78% 29.71 0.0
04 02:55 S 7 10.00 Fair CLR 43.9 40.6 88% 40 29.71 0.0
04 02:35 Calm 10.00 Fair CLR 45.3 40.6 84% 29.72 0.0
04 02:15 S 5 10.00 Fair CLR 44.1 40.8 88% 42 29.72 0.0
Date Time (cdt) Wind (mph) Vis. (mi.) Weather Sky Cond. Air Dwpt Max. Min. Relative Humidity Wind Chill (°F) Heat Index (°F) altimeter (in) sea level (mb) 1 hr 3 hr 6 hr
6 hour
Temperature (ºF) Pressure Precipitation (in)